createdAt,value
2022-10-11T00:02:15.051Z,19.37
2022-10-11T00:04:58.077Z,19.50
2022-10-11T00:07:41.075Z,18.93
2022-10-11T00:10:24.276Z,19.10
2022-10-11T00:13:08.141Z,20.63
2022-10-11T00:15:51.211Z,18.97
2022-10-11T00:18:35.632Z,21.73
2022-10-11T00:21:19.837Z,21.00
2022-10-11T00:24:02.967Z,21.73
2022-10-11T00:26:47.120Z,21.53
2022-10-11T00:29:30.237Z,22.50
2022-10-11T00:32:13.267Z,20.73
2022-10-11T00:34:59.776Z,20.27
2022-10-11T00:37:42.847Z,20.43
2022-10-11T00:40:26.013Z,21.20
2022-10-11T00:43:17.327Z,21.17
2022-10-11T00:46:06.849Z,22.57
2022-10-11T00:48:54.940Z,22.00
2022-10-11T00:51:44.604Z,21.47
2022-10-11T00:54:30.026Z,21.37
2022-10-11T00:57:16.428Z,22.67
2022-10-11T01:00:00.190Z,22.53
2022-10-11T01:02:44.461Z,21.90
2022-10-11T01:05:30.191Z,22.87
2022-10-11T01:08:15.221Z,21.97
2022-10-11T01:10:58.711Z,22.70
2022-10-11T01:13:53.638Z,23.03
2022-10-11T01:16:43.635Z,23.67
2022-10-11T01:19:49.892Z,24.40
2022-10-11T01:22:59.226Z,22.67
2022-10-11T01:25:56.580Z,24.07
2022-10-11T01:28:47.720Z,24.30
2022-10-11T01:31:40.319Z,24.70
2022-10-11T01:34:28.375Z,26.10
2022-10-11T01:37:18.485Z,26.60
2022-10-11T01:40:07.146Z,25.93
2022-10-11T01:42:51.015Z,26.00
2022-10-11T01:45:35.911Z,24.60
2022-10-11T01:48:20.400Z,25.80
2022-10-11T01:51:04.571Z,24.87
2022-10-11T01:54:05.053Z,24.77
2022-10-11T01:57:13.424Z,26.27
2022-10-11T02:00:03.485Z,27.43
2022-10-11T02:03:03.163Z,26.03
2022-10-11T02:05:52.965Z,26.17
2022-10-11T02:08:46.070Z,26.63
2022-10-11T02:11:31.910Z,26.30
2022-10-11T02:14:19.979Z,27.50
2022-10-11T02:17:08.361Z,27.20
2022-10-11T02:19:54.458Z,28.93
2022-10-11T02:22:42.136Z,29.90
2022-10-11T02:25:27.629Z,28.00
2022-10-11T02:28:15.271Z,31.37
2022-10-11T02:31:01.255Z,30.17
2022-10-11T02:33:46.679Z,31.23
2022-10-11T02:36:37.674Z,30.70
2022-10-11T02:39:26.877Z,30.60
2022-10-11T02:42:15.973Z,29.30
2022-10-11T02:45:02.317Z,29.70
2022-10-11T02:47:46.099Z,28.80
2022-10-11T02:50:29.425Z,29.93
2022-10-11T02:53:12.437Z,30.33
2022-10-11T02:55:57.197Z,29.40
2022-10-11T02:58:40.214Z,31.50
2022-10-11T03:01:23.280Z,31.13
2022-10-11T03:04:06.589Z,31.17
2022-10-11T03:06:49.641Z,36.10
2022-10-11T03:09:32.899Z,32.00
2022-10-11T03:12:17.302Z,31.50
2022-10-11T03:15:00.327Z,31.40
2022-10-11T03:17:43.347Z,31.23
2022-10-11T03:20:26.651Z,31.40
2022-10-11T03:23:09.735Z,32.13
2022-10-11T03:25:53.148Z,32.73
2022-10-11T03:28:37.602Z,36.67
2022-10-11T03:31:21.822Z,35.27
2022-10-11T03:34:04.867Z,37.40
2022-10-11T03:36:48.162Z,33.73
2022-10-11T03:39:31.115Z,35.53
2022-10-11T03:42:14.756Z,35.10
2022-10-11T03:44:59.905Z,35.50
2022-10-11T03:47:42.931Z,32.40
2022-10-11T03:50:25.953Z,31.90
2022-10-11T03:53:09.417Z,33.43
2022-10-11T03:55:54.513Z,32.13
2022-10-11T03:58:37.587Z,32.50
2022-10-11T04:01:22.027Z,34.30
2022-10-11T04:04:05.421Z,32.70
2022-10-11T04:06:48.441Z,30.00
2022-10-11T04:09:31.690Z,31.30
2022-10-11T04:12:14.699Z,30.87
2022-10-11T04:14:57.717Z,32.27
2022-10-11T04:17:42.383Z,32.00
2022-10-11T04:20:25.362Z,32.60
2022-10-11T04:23:08.407Z,33.20
2022-10-11T04:25:51.441Z,33.23
2022-10-11T04:28:35.497Z,33.13
2022-10-11T04:31:18.555Z,32.70
2022-10-11T04:34:02.952Z,31.50
2022-10-11T04:36:49.777Z,30.97
2022-10-11T04:39:33.083Z,31.90
2022-10-11T04:42:16.437Z,32.23
2022-10-11T04:44:59.397Z,29.90
2022-10-11T04:47:42.410Z,31.20
2022-10-11T04:50:26.843Z,31.43
2022-10-11T04:53:09.880Z,28.13
2022-10-11T04:56:01.413Z,31.07
2022-10-11T04:58:44.662Z,33.90
2022-10-11T05:01:27.738Z,32.47
2022-10-11T05:04:10.726Z,34.73
2022-10-11T05:06:55.576Z,43.03
2022-10-11T05:09:38.602Z,31.57
2022-10-11T05:12:21.633Z,31.30
2022-10-11T05:15:05.293Z,33.27
2022-10-11T05:17:48.326Z,32.00
2022-10-11T05:20:31.323Z,34.53
2022-10-11T05:23:15.883Z,33.70
2022-10-11T05:25:59.115Z,31.50
2022-10-11T05:28:42.243Z,31.87
2022-10-11T05:31:25.587Z,33.00
2022-10-11T05:34:08.714Z,31.80
2022-10-11T05:36:51.706Z,34.33
2022-10-11T05:39:36.104Z,31.33
2022-10-11T05:42:19.233Z,33.80
2022-10-11T05:45:02.188Z,32.03
2022-10-11T05:47:45.319Z,32.37
2022-10-11T05:50:28.343Z,33.43
2022-10-11T05:53:11.417Z,32.00
2022-10-11T05:55:56.169Z,33.60
2022-10-11T05:58:40.885Z,31.47
2022-10-11T06:01:26.246Z,33.00
2022-10-11T06:04:09.945Z,32.60
2022-10-11T06:06:52.917Z,31.83
2022-10-11T06:09:35.928Z,32.10
2022-10-11T06:12:21.708Z,33.13
2022-10-11T06:15:05.191Z,31.30
2022-10-11T06:17:48.285Z,35.03
2022-10-11T06:20:31.274Z,30.80
2022-10-11T06:23:14.347Z,30.73
2022-10-11T06:25:58.586Z,32.97
2022-10-11T06:28:43.137Z,32.33
2022-10-11T06:31:26.311Z,33.77
2022-10-11T06:34:09.621Z,29.43
2022-10-11T06:36:52.752Z,29.07
2022-10-11T06:39:35.969Z,30.47
2022-10-11T06:42:18.918Z,31.20
2022-10-11T06:45:03.329Z,30.57
2022-10-11T06:47:46.335Z,30.93
2022-10-11T06:50:54.269Z,29.70
2022-10-11T06:53:32.313Z,30.97
2022-10-11T06:56:15.317Z,29.93
2022-10-11T06:59:00.034Z,28.13
2022-10-11T07:01:44.474Z,28.47
2022-10-11T07:04:28.896Z,28.43
2022-10-11T07:07:14.480Z,27.63
2022-10-11T07:09:57.387Z,27.70
2022-10-11T07:12:40.425Z,28.00
2022-10-11T07:15:23.466Z,27.10
2022-10-11T07:18:08.287Z,28.73
2022-10-11T07:20:51.300Z,27.80
2022-10-11T07:23:34.675Z,27.93
2022-10-11T07:26:18.559Z,27.10
2022-10-11T07:29:01.810Z,26.73
2022-10-11T07:31:45.217Z,25.20
2022-10-11T07:34:29.648Z,26.93
2022-10-11T07:37:13.659Z,26.47
2022-10-11T07:39:56.625Z,24.97
2022-10-11T07:42:39.789Z,24.43
2022-10-11T07:45:22.861Z,24.90
2022-10-11T07:48:06.443Z,28.60
2022-10-11T07:50:51.025Z,24.33
2022-10-11T07:53:38.842Z,24.20
2022-10-11T07:56:24.654Z,25.47
2022-10-11T07:59:08.247Z,26.27
2022-10-11T08:01:51.337Z,23.93
2022-10-11T08:04:34.321Z,23.67
2022-10-11T08:07:18.776Z,24.23
2022-10-11T08:10:01.865Z,24.37
2022-10-11T08:12:47.996Z,23.80
2022-10-11T08:15:31.128Z,24.67
2022-10-11T08:18:14.115Z,22.13
2022-10-11T08:20:57.110Z,24.70
2022-10-11T08:23:42.062Z,23.60
2022-10-11T08:26:25.291Z,22.07
2022-10-11T08:29:08.357Z,23.30
2022-10-11T08:31:51.327Z,22.33
2022-10-11T08:34:34.441Z,23.63
2022-10-11T08:37:17.414Z,22.43
2022-10-11T08:40:03.455Z,23.63
2022-10-11T08:42:50.128Z,21.60
2022-10-11T08:45:40.449Z,22.00
2022-10-11T08:48:32.669Z,23.17
2022-10-11T08:51:21.925Z,21.47
2022-10-11T08:54:08.159Z,23.53
2022-10-11T08:56:52.802Z,21.63
2022-10-11T08:59:42.359Z,23.17
2022-10-11T09:02:55.591Z,23.07
2022-10-11T09:05:44.823Z,22.33
2022-10-11T09:08:38.291Z,19.97
2022-10-11T09:11:32.190Z,22.07
2022-10-11T09:14:40.623Z,21.37
2022-10-11T09:17:40.594Z,20.43
2022-10-11T09:20:48.760Z,22.77
2022-10-11T09:23:46.547Z,21.60
2022-10-11T09:26:35.667Z,21.53
2022-10-11T09:29:27.666Z,22.63
2022-10-11T09:32:16.081Z,25.73
2022-10-11T09:35:02.833Z,21.73
2022-10-11T09:37:53.848Z,21.00
2022-10-11T09:40:49.597Z,22.07
2022-10-11T09:43:32.663Z,21.63
2022-10-11T09:46:24.447Z,21.20
2022-10-11T09:49:12.586Z,21.07
2022-10-11T09:51:59.131Z,20.27
2022-10-11T09:54:43.684Z,20.77
2022-10-11T09:57:28.716Z,22.53
2022-10-11T10:00:22.242Z,23.47
2022-10-11T10:03:06.750Z,21.80
2022-10-11T10:06:07.031Z,21.70
2022-10-11T10:08:50.779Z,21.60
2022-10-11T10:11:37.787Z,21.97
2022-10-11T10:14:25.048Z,20.50
2022-10-11T10:17:18.962Z,21.30
2022-10-11T10:20:05.705Z,21.87
2022-10-11T10:22:48.863Z,21.17
2022-10-11T10:25:42.299Z,19.93
2022-10-11T10:28:28.582Z,22.20
2022-10-11T10:31:23.210Z,20.63
2022-10-11T10:34:13.699Z,22.10
2022-10-11T10:37:03.692Z,20.20
2022-10-11T10:39:52.898Z,19.13
2022-10-11T10:42:36.007Z,18.00
2022-10-11T10:45:21.877Z,17.53
2022-10-11T10:48:19.594Z,19.40
2022-10-11T10:51:10.687Z,19.13
2022-10-11T10:54:03.799Z,20.40
2022-10-11T10:56:53.220Z,20.40
2022-10-11T10:59:52.820Z,19.63
2022-10-11T11:02:45.626Z,19.07
2022-10-11T11:05:40.110Z,19.90
2022-10-11T11:08:39.115Z,18.30
2022-10-11T11:11:37.851Z,19.67
2022-10-11T11:14:35.135Z,19.50
2022-10-11T11:17:29.886Z,20.77
2022-10-11T11:20:28.121Z,19.93
2022-10-11T11:23:23.447Z,17.90
2022-10-11T11:26:15.052Z,17.40
2022-10-11T11:29:10.652Z,19.20
2022-10-11T11:32:11.999Z,20.23
2022-10-11T11:35:01.253Z,20.10
2022-10-11T11:37:48.753Z,18.47
2022-10-11T11:40:36.128Z,21.07
2022-10-11T11:43:24.776Z,20.43
2022-10-11T11:46:17.366Z,20.53
2022-10-11T11:49:08.609Z,19.90
2022-10-11T11:51:56.161Z,18.83
2022-10-11T11:54:49.815Z,19.47
2022-10-11T11:57:47.112Z,18.90
2022-10-11T12:00:36.005Z,20.47
2022-10-11T12:03:25.271Z,20.53
2022-10-11T12:06:22.076Z,20.93
2022-10-11T12:09:09.262Z,21.23
2022-10-11T12:11:56.758Z,21.47
2022-10-11T12:14:41.925Z,21.53
2022-10-11T12:17:25.196Z,20.37
2022-10-11T12:20:16.222Z,25.60
2022-10-11T12:23:01.381Z,20.53
2022-10-11T12:25:45.564Z,19.93
2022-10-11T12:29:03.873Z,19.17
2022-10-11T12:31:49.130Z,18.30
2022-10-11T12:34:37.959Z,19.10
2022-10-11T12:37:51.002Z,17.77
2022-10-11T12:40:36.431Z,20.40
2022-10-11T12:43:30.120Z,19.60
2022-10-11T12:46:41.268Z,18.67
2022-10-11T12:49:47.033Z,18.57
2022-10-11T12:52:38.891Z,17.90
2022-10-11T12:55:31.437Z,18.57
2022-10-11T12:58:28.523Z,20.20
2022-10-11T13:01:32.185Z,18.13
2022-10-11T13:04:20.233Z,16.80
2022-10-11T13:07:07.622Z,17.77
2022-10-11T13:09:55.549Z,18.20
2022-10-11T13:12:44.220Z,17.80
2022-10-11T13:15:28.061Z,19.53
2022-10-11T13:18:15.163Z,17.40
2022-10-11T13:20:58.194Z,17.23
2022-10-11T13:23:41.272Z,17.47
2022-10-11T13:26:25.813Z,17.93
2022-10-11T13:29:17.792Z,19.00
2022-10-11T13:32:02.192Z,16.87
2022-10-11T13:34:48.162Z,18.43
2022-10-11T13:37:37.882Z,20.37
2022-10-11T13:40:23.346Z,24.00
2022-10-11T13:43:07.612Z,23.83
2022-10-11T13:45:53.178Z,26.23
2022-10-11T13:48:41.575Z,27.13
2022-10-11T13:51:32.285Z,27.10
2022-10-11T13:54:15.326Z,27.20
2022-10-11T13:56:58.373Z,25.97
2022-10-11T13:59:44.670Z,25.93
2022-10-11T14:02:30.582Z,26.10
2022-10-11T14:05:24.771Z,26.73
2022-10-11T14:08:18.724Z,25.63
2022-10-11T14:11:06.369Z,24.90
2022-10-11T14:13:50.127Z,25.17
2022-10-11T14:16:33.254Z,25.20
2022-10-11T14:19:21.296Z,24.07
2022-10-11T14:22:06.136Z,23.93
2022-10-11T14:24:49.841Z,24.03
2022-10-11T14:27:33.091Z,24.20
2022-10-11T14:30:27.448Z,23.60
2022-10-11T14:33:12.638Z,23.77
2022-10-11T14:35:57.120Z,23.80
2022-10-11T14:38:40.234Z,24.00
2022-10-11T14:41:23.269Z,23.47
2022-10-11T14:44:07.411Z,24.40
2022-10-11T14:46:54.531Z,25.00
2022-10-11T14:49:38.970Z,26.63
2022-10-11T14:52:23.428Z,26.27
2022-10-11T14:55:06.644Z,26.87
2022-10-11T14:57:49.670Z,26.37
2022-10-11T15:00:33.601Z,26.60
2022-10-11T15:03:16.665Z,27.80
2022-10-11T15:05:59.715Z,27.87
2022-10-11T15:08:44.142Z,27.67
2022-10-11T15:11:27.739Z,26.50
2022-10-11T15:14:10.862Z,26.93
2022-10-11T15:16:54.084Z,26.70
2022-10-11T15:19:37.437Z,27.80
2022-10-11T15:22:20.488Z,29.90
2022-10-11T15:25:05.809Z,29.97
2022-10-11T15:27:49.227Z,30.17
2022-10-11T15:30:38.462Z,29.00
2022-10-11T15:33:25.445Z,28.57
2022-10-11T15:36:12.498Z,30.73
2022-10-11T15:38:55.639Z,30.90
2022-10-11T15:41:40.106Z,29.47
2022-10-11T15:44:23.175Z,29.37
2022-10-11T15:47:06.471Z,28.20
2022-10-11T15:49:49.562Z,30.53
2022-10-11T15:52:32.577Z,30.63
2022-10-11T15:55:15.690Z,30.40
2022-10-11T15:58:01.234Z,31.23
2022-10-11T16:00:45.462Z,29.60
2022-10-11T16:03:30.886Z,30.13
2022-10-11T16:06:14.324Z,32.43
2022-10-11T16:08:57.382Z,30.17
2022-10-11T16:11:40.536Z,29.00
2022-10-11T16:14:25.160Z,29.27
2022-10-11T16:17:08.150Z,26.67
2022-10-11T16:19:51.671Z,28.57
2022-10-11T16:22:34.908Z,27.97
2022-10-11T16:25:18.208Z,27.63
2022-10-11T16:28:02.540Z,26.63
2022-10-11T16:30:47.058Z,25.30
2022-10-11T16:33:31.846Z,26.57
2022-10-11T16:36:36.150Z,25.73
2022-10-11T16:39:20.096Z,26.03
2022-10-11T16:42:03.212Z,24.63
2022-10-11T16:44:46.333Z,24.97
2022-10-11T16:47:30.767Z,25.03
2022-10-11T16:50:14.434Z,24.80
2022-10-11T16:52:57.552Z,24.27
2022-10-11T16:55:40.952Z,25.03
2022-10-11T16:58:23.985Z,23.83
2022-10-11T17:01:10.213Z,22.90
2022-10-11T17:03:55.837Z,24.50
2022-10-11T17:06:40.171Z,24.03
2022-10-11T17:09:26.775Z,24.70
2022-10-11T17:12:11.006Z,24.97
2022-10-11T17:14:54.251Z,23.10
2022-10-11T17:17:37.324Z,23.73
2022-10-11T17:20:21.777Z,22.20
2022-10-11T17:23:04.991Z,23.47
2022-10-11T17:25:48.677Z,23.43
2022-10-11T17:28:32.595Z,22.77
2022-10-11T17:31:15.960Z,22.70
2022-10-11T17:34:00.112Z,23.07
2022-10-11T17:36:44.879Z,22.23
2022-10-11T17:39:27.900Z,22.53
2022-10-11T17:42:11.210Z,23.07
2022-10-11T17:44:57.688Z,22.90
2022-10-11T17:47:40.737Z,22.03
2022-10-11T17:50:23.997Z,22.03
2022-10-11T17:53:08.681Z,24.77
2022-10-11T17:55:53.460Z,22.10
2022-10-11T17:58:36.937Z,23.73
2022-10-11T18:01:22.455Z,24.23
2022-10-11T18:04:07.280Z,23.57
2022-10-11T18:06:50.555Z,26.30
2022-10-11T18:09:35.127Z,24.70
2022-10-11T18:12:18.317Z,23.40
2022-10-11T18:15:01.296Z,24.33
2022-10-11T18:17:44.318Z,22.50
2022-10-11T18:20:27.716Z,22.73
2022-10-11T18:23:13.789Z,22.20
2022-10-11T18:25:58.439Z,22.67
2022-10-11T18:28:42.323Z,23.50
2022-10-11T18:31:26.979Z,23.17
2022-10-11T18:34:11.676Z,24.97
2022-10-11T18:36:54.737Z,22.80
2022-10-11T18:39:37.882Z,23.80
2022-10-11T18:42:22.648Z,24.03
2022-10-11T18:45:06.772Z,22.37
2022-10-11T18:47:51.352Z,22.87
2022-10-11T18:50:35.602Z,23.77
2022-10-11T18:53:18.696Z,22.23
2022-10-11T18:56:02.974Z,22.90
2022-10-11T18:58:48.343Z,24.63
2022-10-11T19:01:33.136Z,22.93
2022-10-11T19:04:17.142Z,22.43
2022-10-11T19:07:00.777Z,23.50
2022-10-11T19:09:44.048Z,23.87
2022-10-11T19:12:27.051Z,25.60
2022-10-11T19:15:11.990Z,23.90
2022-10-11T19:17:55.241Z,24.40
2022-10-11T19:20:38.570Z,25.80
2022-10-11T19:23:23.630Z,27.77
2022-10-11T19:26:07.597Z,27.37
2022-10-11T19:28:56.660Z,27.23
2022-10-11T19:31:45.109Z,26.33
2022-10-11T19:34:29.264Z,25.50
2022-10-11T19:37:13.456Z,35.77
2022-10-11T19:39:56.633Z,25.77
2022-10-11T19:42:39.679Z,26.47
2022-10-11T19:45:22.797Z,26.23
2022-10-11T19:48:07.351Z,26.80
2022-10-11T19:50:50.422Z,25.50
2022-10-11T19:53:33.864Z,26.70
2022-10-11T19:56:18.654Z,27.30
2022-10-11T19:59:02.358Z,26.40
2022-10-11T20:01:51.006Z,27.47
2022-10-11T20:04:51.928Z,27.03
2022-10-11T20:07:35.887Z,26.93
2022-10-11T20:10:19.546Z,28.57
2022-10-11T20:13:02.672Z,32.23
2022-10-11T20:15:45.889Z,29.07
2022-10-11T20:18:30.114Z,27.93
2022-10-11T20:21:16.758Z,29.60
2022-10-11T20:24:01.866Z,29.03
2022-10-11T20:26:44.850Z,27.23
2022-10-11T20:29:28.293Z,28.40
2022-10-11T20:32:11.483Z,29.43
2022-10-11T20:34:54.549Z,30.90
2022-10-11T20:37:39.351Z,28.80
2022-10-11T20:40:22.359Z,29.23
2022-10-11T20:43:05.490Z,29.63
2022-10-11T20:45:59.318Z,29.63
2022-10-11T20:48:43.182Z,29.93
2022-10-11T20:51:26.426Z,29.67
2022-10-11T20:54:11.981Z,30.13
2022-10-11T20:56:55.071Z,29.97
2022-10-11T20:59:38.142Z,28.00
2022-10-11T21:02:21.139Z,29.13
2022-10-11T21:05:04.183Z,28.90
2022-10-11T21:07:47.353Z,28.10
2022-10-11T21:10:32.142Z,28.30
2022-10-11T21:13:15.198Z,26.80
2022-10-11T21:16:04.726Z,28.10
2022-10-11T21:18:51.756Z,29.67
2022-10-11T21:21:34.978Z,28.50
2022-10-11T21:24:18.006Z,28.30
2022-10-11T21:27:02.474Z,28.77
2022-10-11T21:29:45.516Z,30.03
2022-10-11T21:32:28.607Z,29.63
2022-10-11T21:35:11.648Z,28.43
2022-10-11T21:37:55.796Z,27.97
2022-10-11T21:40:40.161Z,26.83
2022-10-11T21:43:24.882Z,26.17
2022-10-11T21:46:12.282Z,28.37
2022-10-11T21:48:55.889Z,29.73
2022-10-11T21:51:39.033Z,27.63
2022-10-11T21:54:22.162Z,27.97
2022-10-11T21:57:05.310Z,27.87
2022-10-11T21:59:49.988Z,26.80
2022-10-11T22:02:33.102Z,27.37
2022-10-11T22:05:16.745Z,26.13
2022-10-11T22:07:59.739Z,26.67
2022-10-11T22:10:44.983Z,27.53
2022-10-11T22:13:30.340Z,28.40
2022-10-11T22:16:15.381Z,26.20
2022-10-11T22:18:58.390Z,27.57
2022-10-11T22:21:44.890Z,26.70
2022-10-11T22:24:29.700Z,27.63
2022-10-11T22:27:12.940Z,27.67
2022-10-11T22:29:56.063Z,29.23
2022-10-11T22:32:40.485Z,26.47
2022-10-11T22:35:24.187Z,26.40
2022-10-11T22:38:07.744Z,24.67
2022-10-11T22:40:50.739Z,25.60
2022-10-11T22:43:33.828Z,26.13
2022-10-11T22:46:17.291Z,26.47
2022-10-11T22:49:01.810Z,25.40
2022-10-11T22:51:45.627Z,25.70
2022-10-11T22:54:28.666Z,25.23
2022-10-11T22:57:11.780Z,24.23
2022-10-11T22:59:54.799Z,25.50
2022-10-11T23:02:37.860Z,27.37
2022-10-11T23:05:22.372Z,25.37
2022-10-11T23:08:06.417Z,27.33
2022-10-11T23:10:49.443Z,28.90
2022-10-11T23:13:32.534Z,27.30
2022-10-11T23:16:15.602Z,30.13
2022-10-11T23:18:58.664Z,31.23
2022-10-11T23:21:43.133Z,30.47
2022-10-11T23:24:26.283Z,32.60
2022-10-11T23:27:09.287Z,33.80
2022-10-11T23:29:52.294Z,35.13
2022-10-11T23:32:35.590Z,34.13
2022-10-11T23:35:18.600Z,33.87
2022-10-11T23:38:03.063Z,33.87
2022-10-11T23:40:46.140Z,32.80
2022-10-11T23:43:29.196Z,32.67
2022-10-11T23:46:12.253Z,32.73
2022-10-11T23:48:55.330Z,31.33
2022-10-11T23:51:38.431Z,32.20
2022-10-11T23:54:22.926Z,31.23
2022-10-11T23:57:06.041Z,31.37
2022-10-11T23:59:49.185Z,31.63
